Time;durP1;ratioP1;P1;durP2;ratioP2;P2;SDS_P1;SDS_P2;PMS_P1;PMS_P2;Temp;Humidity;BMP_temperature;BMP_pressure;BME280_temperature;BME280_humidity;BME280_pressure;Samples;Min_cycle;Max_cycle;Signal;HPM_P1;HPM_P2
2021/07/17 00:00:40;;;;;;;31.00;22.00;;;18.10;93.80;;;;;;5032573;28;20029;-78
2021/07/17 00:03:07;;;;;;;33.42;21.95;;;17.90;94.70;;;;;;5031638;28;20042;-78
2021/07/17 00:05:33;;;;;;;35.28;24.05;;;17.80;94.80;;;;;;5032313;28;20033;-78
2021/07/17 00:07:59;;;;;;;35.45;23.02;;;17.70;95.00;;;;;;5037512;28;20083;-78
2021/07/17 00:10:51;;;;;;;35.88;24.48;;;17.70;95.40;;;;;;5044830;28;20033;-78
2021/07/17 00:13:18;;;;;;;41.20;23.48;;;17.70;95.70;;;;;;5027574;28;20383;-77
2021/07/17 00:15:46;;;;;;;37.92;23.48;;;17.70;95.40;;;;;;5031853;28;20040;-78
2021/07/17 00:18:15;;;;;;;34.47;23.80;;;17.70;95.60;;;;;;5033488;28;20029;-77
2021/07/17 00:20:42;;;;;;;32.30;22.73;;;17.70;95.40;;;;;;5032276;28;20041;-77
2021/07/17 00:23:10;;;;;;;35.97;22.50;;;17.70;95.30;;;;;;5031759;28;20021;-76
2021/07/17 00:25:37;;;;;;;33.75;22.95;;;17.70;95.20;;;;;;5032298;28;20124;-76
2021/07/17 00:28:04;;;;;;;33.00;23.90;;;17.80;95.10;;;;;;5032252;28;20025;-76
2021/07/17 00:30:30;;;;;;;34.80;23.40;;;17.70;94.80;;;;;;5015442;28;20149;-76
2021/07/17 00:32:56;;;;;;;39.05;23.98;;;17.70;95.40;;;;;;5015695;28;20529;-76
2021/07/17 00:35:21;;;;;;;40.10;24.65;;;17.70;94.80;;;;;;5031711;28;20378;-78
2021/07/17 00:37:48;;;;;;;38.63;24.58;;;17.60;94.80;;;;;;5031848;28;20021;-77
2021/07/17 00:40:19;;;;;;;34.58;22.50;;;17.50;94.60;;;;;;5031910;28;20034;-77
2021/07/17 00:42:45;;;;;;;26.45;18.13;;;17.60;94.70;;;;;;5031925;28;20022;-77
2021/07/17 00:45:11;;;;;;;37.45;23.15;;;17.70;94.70;;;;;;5015560;28;20084;-76
2021/07/17 00:47:38;;;;;;;29.73;20.00;;;17.70;94.20;;;;;;5033255;28;20021;-77
2021/07/17 00:50:10;;;;;;;39.08;24.30;;;17.70;94.30;;;;;;5031740;28;20363;-77
2021/07/17 00:52:36;;;;;;;35.33;22.33;;;17.70;93.70;;;;;;5031651;28;20112;-78
2021/07/17 00:55:04;;;;;;;25.15;18.20;;;17.70;93.70;;;;;;5031667;28;20057;-77
2021/07/17 00:57:35;;;;;;;33.58;22.67;;;17.70;93.60;;;;;;5031296;28;20370;-77
2021/07/17 01:00:07;;;;;;;29.20;19.42;;;17.80;93.30;;;;;;5015308;28;20040;-77
2021/07/17 01:02:38;;;;;;;35.00;23.75;;;17.80;93.30;;;;;;5031821;28;20057;-78
2021/07/17 01:05:07;;;;;;;36.17;22.35;;;17.80;93.00;;;;;;5031941;28;20556;-78
2021/07/17 01:07:33;;;;;;;25.98;18.02;;;17.80;92.90;;;;;;5028751;28;20508;-79
2021/07/17 01:09:59;;;;;;;29.70;19.88;;;17.80;92.90;;;;;;5032883;28;20059;-79
2021/07/17 01:12:26;;;;;;;30.90;19.35;;;17.90;92.90;;;;;;5032452;28;20385;-77
2021/07/17 01:14:51;;;;;;;29.85;20.73;;;17.90;92.50;;;;;;5031455;28;20390;-77
2021/07/17 01:17:17;;;;;;;25.90;19.15;;;17.90;92.40;;;;;;5031432;28;20021;-77
2021/07/17 01:19:44;;;;;;;24.30;17.23;;;17.90;92.40;;;;;;5031369;28;20033;-79
2021/07/17 01:22:09;;;;;;;32.72;23.58;;;17.90;92.50;;;;;;5031222;28;20533;-77
2021/07/17 01:24:38;;;;;;;27.15;18.92;;;17.90;92.50;;;;;;5032638;28;20053;-77
2021/07/17 01:27:04;;;;;;;27.13;18.42;;;17.90;92.50;;;;;;5019020;28;20083;-77
2021/07/17 01:29:29;;;;;;;31.30;19.67;;;17.90;92.30;;;;;;5035435;28;20025;-77
2021/07/17 01:31:55;;;;;;;37.45;24.25;;;18.00;92.20;;;;;;5035328;28;20025;-77
2021/07/17 01:34:21;;;;;;;30.95;22.00;;;17.90;92.00;;;;;;5035061;28;20030;-77
2021/07/17 01:36:47;;;;;;;29.13;19.65;;;18.00;91.80;;;;;;5036603;28;20017;-77
2021/07/17 01:39:14;;;;;;;30.38;21.08;;;18.00;91.70;;;;;;5018336;28;20125;-77
2021/07/17 01:41:41;;;;;;;35.63;24.67;;;17.90;91.40;;;;;;5035089;28;20037;-77
2021/07/17 01:44:08;;;;;;;33.42;20.80;;;17.90;91.50;;;;;;5035220;28;20033;-77
2021/07/17 01:46:35;;;;;;;41.35;24.50;;;17.90;91.60;;;;;;5035049;28;20091;-77
2021/07/17 01:49:01;;;;;;;32.42;21.88;;;17.90;91.70;;;;;;5018507;28;20026;-77
2021/07/17 01:51:28;;;;;;;42.20;26.67;;;17.90;91.60;;;;;;5036159;28;20025;-77
2021/07/17 01:53:55;;;;;;;42.70;28.90;;;17.90;91.30;;;;;;5034968;28;20029;-77
2021/07/17 01:56:23;;;;;;;40.00;28.13;;;17.80;91.10;;;;;;5035760;28;20034;-77
2021/07/17 01:58:51;;;;;;;46.22;30.08;;;17.70;91.70;;;;;;5018308;28;20136;-77
2021/07/17 02:01:18;;;;;;;45.80;30.65;;;17.60;91.70;;;;;;5034717;28;20030;-77
2021/07/17 02:03:47;;;;;;;33.90;24.95;;;17.50;92.40;;;;;;5051295;28;20045;-77
2021/07/17 02:06:14;;;;;;;51.28;30.65;;;17.50;92.50;;;;;;5037887;28;20029;-76
2021/07/17 02:08:41;;;;;;;49.58;29.95;;;17.50;92.60;;;;;;5037463;28;20465;-76
2021/07/17 02:11:08;;;;;;;53.75;33.05;;;17.40;92.60;;;;;;5037324;28;20112;-76
2021/07/17 02:13:36;;;;;;;49.17;29.85;;;17.40;92.80;;;;;;5037690;28;20032;-76
2021/07/17 02:16:02;;;;;;;44.28;30.25;;;17.30;93.30;;;;;;5037593;28;20028;-78
2021/07/17 02:18:32;;;;;;;44.00;29.20;;;17.30;93.50;;;;;;5037691;28;20025;-77
2021/07/17 02:21:05;;;;;;;48.72;31.45;;;17.30;93.60;;;;;;5055562;28;20037;-77
2021/07/17 02:23:32;;;;;;;54.88;33.97;;;17.30;93.50;;;;;;5021236;28;20116;-77
2021/07/17 02:25:57;;;;;;;50.30;30.80;;;17.30;93.80;;;;;;5037680;28;20408;-78
2021/07/17 02:28:23;;;;;;;48.33;31.48;;;17.30;94.00;;;;;;5037359;28;20018;-77
2021/07/17 02:30:50;;;;;;;44.80;28.52;;;17.20;94.10;;;;;;5020974;28;20488;-77
2021/07/17 02:33:18;;;;;;;48.25;31.10;;;17.10;94.10;;;;;;5055380;28;20025;-78
2021/07/17 02:35:44;;;;;;;47.60;30.40;;;17.10;94.10;;;;;;5054904;28;20086;-77
2021/07/17 02:38:10;;;;;;;47.33;30.75;;;17.20;94.30;;;;;;5037094;28;20116;-77
2021/07/17 02:40:35;;;;;;;46.00;31.60;;;17.10;94.50;;;;;;5036855;28;20124;-77
2021/07/17 02:43:02;;;;;;;49.10;30.92;;;17.10;94.70;;;;;;5037345;28;20052;-78
2021/07/17 02:45:27;;;;;;;52.60;31.77;;;17.10;95.00;;;;;;5036900;28;20036;-78
2021/07/17 02:47:53;;;;;;;42.15;26.95;;;17.10;94.90;;;;;;5020650;28;20079;-79
2021/07/17 02:50:20;;;;;;;37.95;24.33;;;17.10;95.00;;;;;;5054990;28;20492;-78
2021/07/17 02:52:47;;;;;;;46.75;30.50;;;17.10;94.90;;;;;;5044353;28;20017;-79
2021/07/17 02:55:16;;;;;;;47.03;29.52;;;17.10;94.90;;;;;;5071016;28;20028;-79
2021/07/17 02:57:42;;;;;;;43.97;27.48;;;17.10;94.80;;;;;;5037019;28;20401;-79
2021/07/17 03:00:11;;;;;;;46.63;29.88;;;17.10;94.70;;;;;;5054726;28;20044;-79
2021/07/17 03:02:36;;;;;;;43.22;27.08;;;17.00;94.70;;;;;;5035983;28;20179;-78
2021/07/17 03:05:04;;;;;;;38.17;23.02;;;17.00;95.00;;;;;;5036597;28;20506;-78
2021/07/17 03:07:30;;;;;;;37.30;24.85;;;17.10;94.90;;;;;;5036822;28;20021;-78
2021/07/17 03:09:56;;;;;;;33.53;23.15;;;17.10;94.80;;;;;;5054789;28;20027;-79
2021/07/17 03:12:22;;;;;;;46.25;28.48;;;17.20;94.60;;;;;;5036834;28;20032;-79
2021/07/17 03:14:47;;;;;;;41.20;26.60;;;17.20;94.50;;;;;;5036669;28;20021;-79
2021/07/17 03:17:13;;;;;;;34.53;23.95;;;17.10;94.60;;;;;;5020007;28;20031;-79
2021/07/17 03:19:40;;;;;;;43.50;27.63;;;17.10;94.50;;;;;;5020054;28;20067;-79
2021/07/17 03:22:06;;;;;;;39.40;24.83;;;17.10;94.20;;;;;;5019909;28;20047;-77
2021/07/17 03:24:33;;;;;;;52.05;31.65;;;17.10;94.30;;;;;;5036480;28;20017;-79
2021/07/17 03:26:59;;;;;;;52.15;31.35;;;17.20;94.30;;;;;;5054334;28;20056;-78
2021/07/17 03:29:25;;;;;;;42.22;27.45;;;17.10;94.50;;;;;;5036089;28;20068;-78
2021/07/17 03:31:51;;;;;;;51.08;29.80;;;17.10;94.60;;;;;;5036168;28;20028;-78
2021/07/17 03:34:18;;;;;;;47.13;30.23;;;17.10;94.60;;;;;;5036046;28;20539;-78
2021/07/17 03:36:45;;;;;;;58.70;34.28;;;17.10;94.70;;;;;;5036398;28;20032;-78
2021/07/17 03:39:12;;;;;;;51.85;29.75;;;17.10;94.60;;;;;;5036067;28;20029;-79
2021/07/17 03:41:39;;;;;;;52.78;31.45;;;17.20;94.70;;;;;;5036034;28;20835;-78
2021/07/17 03:44:06;;;;;;;52.67;33.03;;;17.20;94.60;;;;;;5036033;28;20056;-78
2021/07/17 03:46:32;;;;;;;51.67;32.83;;;17.20;94.60;;;;;;5035979;28;20029;-77
2021/07/17 03:48:57;;;;;;;60.60;34.78;;;17.20;94.50;;;;;;5053606;28;20066;-79
2021/07/17 03:51:25;;;;;;;53.72;33.45;;;17.20;94.40;;;;;;5035595;28;20087;-78
2021/07/17 03:53:51;;;;;;;56.00;33.72;;;17.10;94.50;;;;;;5035980;28;20449;-79
2021/07/17 03:56:18;;;;;;;54.15;33.42;;;17.10;94.80;;;;;;5035959;28;20112;-79
2021/07/17 03:58:44;;;;;;;56.38;32.97;;;17.00;94.80;;;;;;5053831;28;20029;-79
2021/07/17 04:01:11;;;;;;;51.72;33.15;;;17.00;95.10;;;;;;5035463;28;20037;-77
2021/07/17 04:03:39;;;;;;;52.13;32.85;;;16.90;95.40;;;;;;5035746;28;20045;-78
2021/07/17 04:06:04;;;;;;;58.67;35.08;;;16.90;95.70;;;;;;5035735;28;20028;-77
2021/07/17 04:08:30;;;;;;;57.83;34.35;;;16.80;95.80;;;;;;5035426;28;20017;-77
2021/07/17 04:10:55;;;;;;;62.38;35.28;;;16.80;96.10;;;;;;5035794;28;20127;-77
2021/07/17 04:13:21;;;;;;;55.72;33.15;;;16.80;96.00;;;;;;5019190;28;20074;-79
2021/07/17 04:15:47;;;;;;;48.35;29.92;;;16.80;96.10;;;;;;5035812;28;20033;-78
2021/07/17 04:18:13;;;;;;;58.42;33.90;;;16.80;96.20;;;;;;5035246;28;20108;-78
2021/07/17 04:20:41;;;;;;;47.65;30.83;;;16.80;95.90;;;;;;5035325;28;20029;-77
2021/07/17 04:23:09;;;;;;;43.25;27.67;;;16.80;95.90;;;;;;5019488;28;20068;-77
2021/07/17 04:25:36;;;;;;;49.50;29.67;;;16.80;96.00;;;;;;5035890;28;20029;-77
2021/07/17 04:28:02;;;;;;;47.15;29.90;;;16.80;96.00;;;;;;5035078;28;20028;-78
2021/07/17 04:30:28;;;;;;;46.97;30.67;;;16.80;96.30;;;;;;5053162;28;20033;-78
2021/07/17 04:32:53;;;;;;;44.55;29.15;;;16.70;96.70;;;;;;5035161;28;20474;-77
2021/07/17 04:35:19;;;;;;;47.20;29.63;;;16.60;96.80;;;;;;5034893;28;20040;-77
2021/07/17 04:37:45;;;;;;;42.97;27.13;;;16.70;96.80;;;;;;5035246;28;20032;-78
2021/07/17 04:40:17;;;;;;;41.15;28.27;;;16.70;96.70;;;;;;5053058;28;20025;-77
2021/07/17 04:42:44;;;;;;;43.55;28.08;;;16.70;96.50;;;;;;5035366;28;20044;-78
2021/07/17 04:45:14;;;;;;;44.45;26.40;;;16.60;96.60;;;;;;5035195;28;20029;-78
2021/07/17 04:47:40;;;;;;;32.88;22.92;;;16.70;97.00;;;;;;5035244;28;20439;-78
2021/07/17 04:50:06;;;;;;;37.30;23.45;;;16.70;96.70;;;;;;5034736;28;20025;-77
2021/07/17 04:52:32;;;;;;;32.97;22.85;;;16.80;96.50;;;;;;5034525;28;20136;-78
2021/07/17 04:54:57;;;;;;;30.88;22.50;;;16.80;95.60;;;;;;5034722;28;20532;-78
2021/07/17 04:57:23;;;;;;;34.42;23.52;;;16.90;95.90;;;;;;5052676;28;20162;-77
2021/07/17 04:59:49;;;;;;;34.92;22.13;;;16.80;95.40;;;;;;5039713;28;20550;-77
2021/07/17 05:02:15;;;;;;;34.55;23.27;;;16.90;95.50;;;;;;5052022;28;20037;-78
2021/07/17 05:04:41;;;;;;;38.90;23.27;;;16.90;95.20;;;;;;5057343;28;20481;-79
2021/07/17 05:07:06;;;;;;;34.40;21.60;;;16.80;95.20;;;;;;5034801;28;20116;-78
2021/07/17 05:09:32;;;;;;;28.17;18.45;;;16.80;95.30;;;;;;5051274;28;20029;-81
2021/07/17 05:11:58;;;;;;;32.10;20.30;;;16.80;95.30;;;;;;5034872;28;20504;-79
2021/07/17 05:14:24;;;;;;;25.55;18.40;;;16.90;95.40;;;;;;5018456;28;20063;-79
2021/07/17 05:17:02;;;;;;;33.47;21.55;;;17.00;95.20;;;;;;5052857;28;20044;-79
2021/07/17 05:19:28;;;;;;;29.17;20.52;;;17.00;94.90;;;;;;5034774;28;20032;-80
2021/07/17 05:21:54;;;;;;;30.65;19.40;;;17.10;94.90;;;;;;5034584;28;20025;-79
2021/07/17 05:24:21;;;;;;;29.88;19.58;;;17.10;94.50;;;;;;5034910;28;20028;-80
2021/07/17 05:26:48;;;;;;;27.58;17.80;;;17.10;94.30;;;;;;5052668;28;20118;-78
2021/07/17 05:29:14;;;;;;;28.52;19.02;;;17.00;94.20;;;;;;5018493;28;20477;-79
2021/07/17 05:31:39;;;;;;;26.27;17.35;;;16.90;93.90;;;;;;5034400;28;20029;-78
2021/07/17 05:34:05;;;;;;;30.92;20.40;;;17.00;93.90;;;;;;5033639;28;20017;-78
2021/07/17 05:36:31;;;;;;;33.58;21.85;;;17.00;93.90;;;;;;5034300;28;20032;-77
2021/07/17 05:38:57;;;;;;;35.58;21.92;;;17.00;93.80;;;;;;5017621;28;20053;-76
2021/07/17 05:41:24;;;;;;;31.00;18.83;;;16.90;94.00;;;;;;5034165;28;20064;-77
2021/07/17 05:43:49;;;;;;;27.75;18.48;;;17.00;94.00;;;;;;5017703;28;20033;-77
2021/07/17 05:46:15;;;;;;;28.15;18.20;;;17.00;93.90;;;;;;5034179;28;20120;-76
2021/07/17 05:48:41;;;;;;;36.85;22.48;;;17.10;94.00;;;;;;5034105;28;20024;-77
2021/07/17 05:51:07;;;;;;;33.13;21.95;;;17.00;93.70;;;;;;5033707;28;20108;-77
2021/07/17 05:53:34;;;;;;;33.70;21.55;;;17.00;93.80;;;;;;5033842;28;20021;-77
2021/07/17 05:56:00;;;;;;;33.25;22.10;;;17.00;94.10;;;;;;5033711;28;20086;-77
2021/07/17 05:58:25;;;;;;;34.30;20.92;;;17.00;93.90;;;;;;5017730;28;20485;-77
2021/07/17 06:00:51;;;;;;;35.38;21.05;;;17.10;93.90;;;;;;5033902;28;20501;-76
2021/07/17 06:03:16;;;;;;;30.33;19.63;;;17.20;93.80;;;;;;5030539;28;20045;-77
2021/07/17 06:05:42;;;;;;;31.50;20.10;;;17.20;93.60;;;;;;5030651;28;20087;-76
2021/07/17 06:08:09;;;;;;;30.27;20.02;;;17.20;94.30;;;;;;5047425;28;20493;-77
2021/07/17 06:10:34;;;;;;;39.20;25.45;;;17.20;93.40;;;;;;5031011;28;20025;-77
2021/07/17 06:13:01;;;;;;;47.10;27.17;;;17.30;92.90;;;;;;5033969;28;20024;-78
2021/07/17 06:15:27;;;;;;;38.80;25.48;;;17.20;92.40;;;;;;5034485;28;20095;-77
2021/07/17 06:17:54;;;;;;;43.17;26.83;;;17.10;93.00;;;;;;5033994;28;20104;-78
2021/07/17 06:20:22;;;;;;;48.20;29.70;;;17.10;93.10;;;;;;5017708;28;20543;-78
2021/07/17 06:22:48;;;;;;;52.50;30.48;;;17.00;93.10;;;;;;5017605;28;20492;-77
2021/07/17 06:25:15;;;;;;;53.17;30.27;;;16.90;93.30;;;;;;5034021;28;20463;-76
2021/07/17 06:27:41;;;;;;;55.33;31.90;;;16.80;94.10;;;;;;5017625;28;20026;-77
2021/07/17 06:30:07;;;;;;;62.10;34.35;;;16.90;94.30;;;;;;5035343;28;20076;-76
2021/07/17 06:32:33;;;;;;;60.15;33.90;;;16.80;94.40;;;;;;5050615;28;20108;-76
2021/07/17 06:34:58;;;;;;;58.78;33.60;;;16.70;94.70;;;;;;5033521;28;20017;-77
2021/07/17 06:37:25;;;;;;;58.22;34.22;;;16.70;95.20;;;;;;5033891;28;20026;-76
2021/07/17 06:39:51;;;;;;;60.45;32.92;;;16.60;95.50;;;;;;5017857;28;20063;-74
2021/07/17 06:42:16;;;;;;;64.53;34.88;;;16.60;95.80;;;;;;5034446;28;20074;-74
2021/07/17 06:44:42;;;;;;;63.60;33.35;;;16.60;96.00;;;;;;5033979;28;20021;-76
2021/07/17 06:47:08;;;;;;;47.53;26.63;;;16.60;95.90;;;;;;5034027;28;20025;-75
2021/07/17 06:49:33;;;;;;;45.58;22.27;;;16.70;96.00;;;;;;5034962;28;20033;-77
2021/07/17 06:51:59;;;;;;;42.92;22.23;;;16.90;95.70;;;;;;5033790;28;20025;-74
2021/07/17 06:54:25;;;;;;;49.78;26.27;;;17.20;94.90;;;;;;5033790;28;20017;-75
2021/07/17 06:56:51;;;;;;;47.10;28.63;;;17.40;94.10;;;;;;5049989;28;20496;-74
2021/07/17 06:59:16;;;;;;;43.97;26.00;;;17.60;92.40;;;;;;5033343;28;20108;-75
2021/07/17 07:01:47;;;;;;;49.22;26.88;;;17.60;93.00;;;;;;5033853;28;20099;-76
2021/07/17 07:04:12;;;;;;;55.53;29.00;;;17.70;93.30;;;;;;5054106;28;20048;-75
2021/07/17 07:06:38;;;;;;;77.50;31.17;;;17.80;92.20;;;;;;5037048;28;20029;-75
2021/07/17 07:09:03;;;;;;;56.05;28.00;;;17.80;91.90;;;;;;5036958;28;20021;-76
2021/07/17 07:11:29;;;;;;;48.65;26.83;;;17.90;91.40;;;;;;5053484;28;20032;-77
2021/07/17 07:13:55;;;;;;;48.55;25.75;;;18.00;90.10;;;;;;5036663;28;20363;-75
2021/07/17 07:16:23;;;;;;;42.63;23.40;;;18.00;90.00;;;;;;5036595;28;20017;-75
2021/07/17 07:18:48;;;;;;;43.03;22.58;;;17.90;89.40;;;;;;5036498;28;20029;-74
2021/07/17 07:21:15;;;;;;;40.22;22.60;;;18.00;89.70;;;;;;5036563;28;20059;-76
2021/07/17 07:23:41;;;;;;;36.80;24.35;;;18.20;89.20;;;;;;5035764;28;20071;-75
2021/07/17 07:26:06;;;;;;;39.75;22.23;;;18.20;88.30;;;;;;5036482;28;20500;-77
2021/07/17 07:28:32;;;;;;;32.67;20.55;;;18.10;88.60;;;;;;5036808;28;20450;-75
2021/07/17 07:30:57;;;;;;;34.38;21.08;;;18.10;88.50;;;;;;5036320;28;20032;-75
2021/07/17 07:33:23;;;;;;;34.80;18.98;;;18.20;87.50;;;;;;5054224;28;20025;-75
2021/07/17 07:35:49;;;;;;;28.27;18.13;;;18.30;87.30;;;;;;5036189;28;20075;-75
2021/07/17 07:38:14;;;;;;;24.00;16.65;;;18.40;86.70;;;;;;5035839;28;20075;-75
2021/07/17 07:40:41;;;;;;;27.35;17.20;;;18.50;86.40;;;;;;5038088;28;20033;-76
2021/07/17 07:43:06;;;;;;;31.88;20.70;;;18.60;85.90;;;;;;5040267;28;20021;-75
2021/07/17 07:45:32;;;;;;;28.77;18.10;;;18.60;85.40;;;;;;5051409;28;20108;-74
2021/07/17 07:47:58;;;;;;;33.92;20.15;;;18.40;86.10;;;;;;5057455;28;20078;-74
2021/07/17 07:50:23;;;;;;;31.10;20.00;;;18.50;86.20;;;;;;5054096;28;20029;-75
2021/07/17 07:52:50;;;;;;;34.58;21.33;;;18.50;86.00;;;;;;5052309;28;20497;-75
2021/07/17 07:55:17;;;;;;;32.33;20.27;;;18.30;86.70;;;;;;5052417;28;20381;-75
2021/07/17 07:57:42;;;;;;;30.52;19.92;;;18.20;87.20;;;;;;5052304;28;20021;-75
2021/07/17 08:00:12;;;;;;;37.05;21.92;;;18.00;87.70;;;;;;5051920;28;20087;-74
2021/07/17 08:02:37;;;;;;;27.90;18.52;;;18.10;87.70;;;;;;5035146;28;20114;-74
2021/07/17 08:05:05;;;;;;;32.63;19.63;;;18.20;87.60;;;;;;5052850;28;20036;-74
2021/07/17 08:07:30;;;;;;;29.65;19.90;;;18.30;87.30;;;;;;5051872;28;20021;-74
2021/07/17 08:09:56;;;;;;;25.95;17.63;;;18.40;86.50;;;;;;5053482;28;20035;-75
2021/07/17 08:12:21;;;;;;;32.15;19.30;;;18.50;86.20;;;;;;5051894;28;20036;-77
2021/07/17 08:14:47;;;;;;;28.02;17.58;;;18.50;86.00;;;;;;5053376;28;20469;-74
2021/07/17 08:17:13;;;;;;;28.17;18.50;;;18.60;85.70;;;;;;5051944;28;20025;-75
2021/07/17 08:19:38;;;;;;;29.33;19.15;;;18.60;85.70;;;;;;5051528;28;20124;-75
2021/07/17 08:22:04;;;;;;;24.83;16.73;;;18.60;85.40;;;;;;5051636;28;20096;-74
2021/07/17 08:24:30;;;;;;;30.17;19.65;;;18.60;85.50;;;;;;5051134;28;20358;-75
2021/07/17 08:26:55;;;;;;;26.50;17.05;;;18.80;85.10;;;;;;5051489;28;20508;-76
2021/07/17 08:29:21;;;;;;;26.02;17.30;;;18.80;84.90;;;;;;5035477;28;20032;-75
2021/07/17 08:31:48;;;;;;;36.28;22.13;;;18.90;84.80;;;;;;5052927;28;20059;-75
2021/07/17 08:34:13;;;;;;;30.48;18.58;;;18.90;84.40;;;;;;5050957;28;20025;-74
2021/07/17 08:36:39;;;;;;;23.98;16.08;;;18.70;84.90;;;;;;5051597;28;20021;-74
2021/07/17 08:39:05;;;;;;;26.90;17.92;;;18.80;85.70;;;;;;5051286;28;20028;-74
2021/07/17 08:41:34;;;;;;;29.33;19.63;;;18.90;84.50;;;;;;5051802;28;20040;-73
2021/07/17 08:44:01;;;;;;;31.45;18.80;;;19.00;84.10;;;;;;5051743;28;20056;-74
2021/07/17 08:46:28;;;;;;;33.35;21.63;;;19.10;83.90;;;;;;5051803;28;20481;-75
2021/07/17 08:48:55;;;;;;;37.17;23.73;;;19.10;84.10;;;;;;5051584;28;20021;-74
2021/07/17 08:51:22;;;;;;;36.03;23.63;;;19.00;84.30;;;;;;5052936;28;20021;-76
2021/07/17 08:53:50;;;;;;;31.33;21.20;;;18.70;85.30;;;;;;5051264;28;20424;-75
2021/07/17 08:56:16;;;;;;;36.83;23.92;;;18.70;86.10;;;;;;5051570;28;20028;-75
2021/07/17 08:58:42;;;;;;;30.75;20.42;;;18.60;86.70;;;;;;5051175;28;20057;-75
2021/07/17 09:01:12;;;;;;;33.22;21.67;;;18.50;87.20;;;;;;5051113;28;20057;-75
2021/07/17 09:03:37;;;;;;;32.40;19.63;;;18.50;87.20;;;;;;5051377;28;20049;-75
2021/07/17 09:06:03;;;;;;;29.80;20.17;;;18.50;87.00;;;;;;5051219;28;20025;-74
2021/07/17 09:08:32;;;;;;;36.15;20.40;;;18.40;87.20;;;;;;5052003;28;20025;-74
2021/07/17 09:10:58;;;;;;;38.58;25.50;;;18.40;87.40;;;;;;5054832;28;20071;-75
2021/07/17 09:13:29;;;;;;;33.80;20.23;;;18.30;87.80;;;;;;5052148;28;20063;-74
2021/07/17 09:16:16;;;;;;;35.55;23.25;;;18.30;87.90;;;;;;5053159;28;20028;-74
2021/07/17 09:18:49;;;;;;;32.53;20.15;;;18.30;88.60;;;;;;5052758;28;20025;-75
2021/07/17 09:21:37;;;;;;;38.60;24.02;;;18.20;88.40;;;;;;5046616;28;20107;-74
2021/07/17 09:24:13;;;;;;;33.63;20.60;;;18.20;89.20;;;;;;5051216;28;20037;-74
2021/07/17 09:26:53;;;;;;;34.22;22.30;;;18.20;88.80;;;;;;5051790;28;20386;-74
2021/07/17 09:29:19;;;;;;;34.17;20.95;;;18.00;88.70;;;;;;5051718;28;20397;-75
2021/07/17 09:31:54;;;;;;;33.60;21.17;;;18.00;89.00;;;;;;5051175;28;20032;-74
2021/07/17 09:34:25;;;;;;;30.25;19.52;;;17.90;89.40;;;;;;5053014;28;20062;-74
2021/07/17 09:37:02;;;;;;;34.08;21.08;;;18.00;90.40;;;;;;5053149;28;20061;-75
2021/07/17 09:39:30;;;;;;;30.30;19.20;;;18.00;89.50;;;;;;5051631;28;20024;-76
2021/07/17 09:42:05;;;;;;;34.42;20.08;;;18.00;90.00;;;;;;5053548;28;20036;-77
2021/07/17 09:44:32;;;;;;;28.17;18.40;;;18.10;89.90;;;;;;5054289;28;20028;-74
2021/07/17 09:46:58;;;;;;;32.45;20.10;;;18.20;89.40;;;;;;5057880;28;20067;-75
2021/07/17 09:49:26;;;;;;;38.58;24.58;;;18.20;89.20;;;;;;5065164;28;20025;-73
2021/07/17 09:52:07;;;;;;;36.50;22.38;;;18.20;89.10;;;;;;5065617;28;20104;-75
2021/07/17 09:54:33;;;;;;;31.35;17.50;;;18.10;89.70;;;;;;5061624;28;20021;-73
2021/07/17 09:57:03;;;;;;;43.88;24.00;;;18.00;89.60;;;;;;5059315;28;20033;-74
2021/07/17 09:59:29;;;;;;;44.75;26.00;;;18.00;90.00;;;;;;5059045;28;20025;-77
2021/07/17 10:01:55;;;;;;;41.30;24.52;;;17.90;90.20;;;;;;5058346;28;20469;-74
2021/07/17 10:04:21;;;;;;;33.75;21.08;;;17.90;90.80;;;;;;5061215;28;20035;-74
2021/07/17 10:06:56;;;;;;;31.95;20.85;;;17.90;90.80;;;;;;5044866;28;20025;-74
2021/07/17 10:09:23;;;;;;;;;;;18.00;90.80;;;;;;5077187;28;20017;-74
2021/07/17 10:12:04;;;;;;;30.02;18.13;;;18.00;90.80;;;;;;5059837;28;19904;-74
2021/07/17 10:14:33;;;;;;;39.55;22.50;;;18.10;90.70;;;;;;5059725;28;20036;-75
2021/07/17 10:17:10;;;;;;;26.67;17.48;;;18.20;90.50;;;;;;5058940;28;20028;-74
2021/07/17 10:19:40;;;;;;;30.33;19.08;;;18.30;90.30;;;;;;5059963;28;20031;-75
2021/07/17 10:22:07;;;;;;;23.40;16.25;;;18.30;89.60;;;;;;5059200;28;20130;-74
2021/07/17 10:24:33;;;;;;;24.63;16.13;;;18.50;89.40;;;;;;5059224;28;20180;-74
2021/07/17 10:27:01;;;;;;;27.80;17.52;;;18.70;89.20;;;;;;5042369;28;20104;-74
2021/07/17 10:29:29;;;;;;;25.30;18.17;;;18.80;88.70;;;;;;5059119;28;20020;-74
2021/07/17 10:31:56;;;;;;;24.75;15.15;;;18.80;87.70;;;;;;5042313;28;20061;-74
2021/07/17 10:34:27;;;;;;;28.48;18.42;;;18.90;87.60;;;;;;5076261;28;20082;-74
2021/07/17 10:37:03;;;;;;;29.33;18.58;;;18.90;86.80;;;;;;5075789;28;20024;-74
2021/07/17 10:39:35;;;;;;;20.67;13.77;;;18.70;86.00;;;;;;5075600;28;20043;-76
2021/07/17 10:42:09;;;;;;;30.80;20.63;;;18.70;86.80;;;;;;5057344;28;20074;-75
2021/07/17 10:44:46;;;;;;;23.42;16.17;;;18.60;87.20;;;;;;5057280;28;20040;-77
2021/07/17 10:47:15;;;;;;;27.20;18.13;;;18.60;88.00;;;;;;5074207;28;20035;-75
2021/07/17 10:49:44;;;;;;;23.10;15.50;;;18.50;88.30;;;;;;5057084;28;20036;-76
2021/07/17 10:52:11;;;;;;;27.98;18.58;;;18.60;88.20;;;;;;5056882;28;20031;-77
2021/07/17 10:54:38;;;;;;;33.00;19.17;;;18.60;87.90;;;;;;5056800;28;20056;-79
2021/07/17 10:57:06;;;;;;;29.15;19.23;;;18.50;88.30;;;;;;5039749;28;20025;-76
2021/07/17 10:59:31;;;;;;;30.25;18.10;;;18.60;88.40;;;;;;5056804;28;20020;-77
2021/07/17 11:01:57;;;;;;;27.83;19.25;;;18.60;88.60;;;;;;5074857;28;20024;-76
2021/07/17 11:04:49;;;;;;;23.15;17.13;;;18.60;88.90;;;;;;5075002;28;20044;-77
2021/07/17 11:07:20;;;;;;;21.92;15.50;;;18.70;88.50;;;;;;5074933;28;20070;-76
2021/07/17 11:09:54;;;;;;;18.00;12.57;;;18.70;87.80;;;;;;5056832;28;20078;-75
2021/07/17 11:12:24;;;;;;;19.13;13.57;;;18.80;87.90;;;;;;5056589;28;20458;-75
2021/07/17 11:14:51;;;;;;;29.27;16.70;;;18.90;87.80;;;;;;5056744;28;20024;-79
2021/07/17 11:17:54;;;;;;;27.13;17.70;;;18.90;86.90;;;;;;5056623;28;20020;-77
2021/07/17 11:20:32;;;;;;;20.95;14.88;;;18.80;87.20;;;;;;5039611;28;20047;-76
2021/07/17 11:23:14;;;;;;;23.35;14.43;;;18.80;87.60;;;;;;5074424;28;20491;-75
2021/07/17 11:25:58;;;;;;;19.50;14.20;;;18.90;87.70;;;;;;5074529;28;20029;-75
2021/07/17 11:28:53;;;;;;;25.20;16.25;;;19.00;87.80;;;;;;5074574;28;20031;-77
2021/07/17 11:31:31;;;;;;;25.17;17.33;;;19.10;87.50;;;;;;5056432;28;20485;-75
2021/07/17 11:34:10;;;;;;;24.15;16.38;;;19.10;87.10;;;;;;5056327;28;20079;-75
2021/07/17 11:36:37;;;;;;;19.23;13.90;;;19.20;86.40;;;;;;5073988;28;20112;-75
2021/07/17 11:39:07;;;;;;;17.60;13.75;;;19.20;86.60;;;;;;5073999;28;20392;-76
2021/07/17 11:41:34;;;;;;;21.67;15.55;;;19.30;86.60;;;;;;5073712;28;20503;-76
2021/07/17 11:44:00;;;;;;;19.27;13.88;;;19.30;85.60;;;;;;5056044;28;20428;-75
2021/07/17 11:46:25;;;;;;;22.25;15.75;;;19.40;85.70;;;;;;5055764;28;20035;-75
2021/07/17 11:49:08;;;;;;;21.45;14.88;;;19.40;85.70;;;;;;5073649;28;20472;-75
2021/07/17 11:51:46;;;;;;;21.25;14.07;;;19.50;85.80;;;;;;5055890;28;20499;-75
2021/07/17 11:54:12;;;;;;;21.13;14.18;;;19.60;85.40;;;;;;5055587;28;20031;-75
2021/07/17 11:56:38;;;;;;;17.33;13.65;;;19.70;85.70;;;;;;5039118;28;20032;-76
2021/07/17 11:59:14;;;;;;;18.75;13.73;;;19.80;85.90;;;;;;5073789;28;20028;-76
2021/07/17 12:02:09;;;;;;;20.20;14.65;;;19.80;86.00;;;;;;5073457;28;20109;-76
2021/07/17 12:04:40;;;;;;;24.58;17.00;;;19.90;85.90;;;;;;5055672;28;20559;-76
2021/07/17 12:07:11;;;;;;;22.85;16.05;;;19.80;85.50;;;;;;5055412;28;20040;-76
2021/07/17 12:10:07;;;;;;;18.17;14.00;;;19.80;85.70;;;;;;5054372;28;20024;-75
2021/07/17 12:12:39;;;;;;;21.88;16.98;;;19.70;85.80;;;;;;5053614;28;20094;-75
2021/07/17 12:15:19;;;;;;;29.55;17.65;;;19.70;86.00;;;;;;5073104;28;20052;-75
2021/07/17 12:17:47;;;;;;;23.25;17.73;;;19.50;86.00;;;;;;5055179;28;20029;-74
2021/07/17 12:20:13;;;;;;;25.17;17.92;;;19.20;87.20;;;;;;5055234;28;20429;-74
2021/07/17 12:22:55;;;;;;;26.15;18.08;;;19.10;87.90;;;;;;5055416;28;20021;-76
2021/07/17 12:25:28;;;;;;;29.63;18.63;;;19.00;88.10;;;;;;5040181;28;20029;-81
2021/07/17 12:28:10;;;;;;;22.13;16.20;;;18.90;88.30;;;;;;5055510;28;20024;-82
2021/07/17 12:30:42;;;;;;;25.88;18.10;;;19.00;88.30;;;;;;5055153;28;20016;-79
2021/07/17 12:33:39;;;;;;;26.08;17.75;;;19.00;87.60;;;;;;5050997;28;20020;-75